createdAt,value
2017-09-13T00:00:19.990Z,99.90
2017-09-13T00:02:47.025Z,99.90
2017-09-13T00:05:13.331Z,99.90
2017-09-13T00:07:39.806Z,99.90
2017-09-13T00:10:06.797Z,99.90
2017-09-13T00:12:34.131Z,99.90
2017-09-13T00:15:00.512Z,99.90
2017-09-13T00:17:26.754Z,99.90
2017-09-13T00:19:53.814Z,99.90
2017-09-13T00:22:27.256Z,99.90
2017-09-13T00:24:58.137Z,99.90
2017-09-13T00:27:26.200Z,99.90
2017-09-13T00:29:53.542Z,99.90
2017-09-13T00:32:19.909Z,99.90
2017-09-13T00:34:51.965Z,99.90
2017-09-13T00:37:18.262Z,99.90
2017-09-13T00:39:44.630Z,99.90
2017-09-13T00:42:11.642Z,99.90
2017-09-13T00:44:37.897Z,99.90
2017-09-13T00:47:04.894Z,99.90
2017-09-13T00:49:31.448Z,99.90
2017-09-13T00:51:57.733Z,99.90
2017-09-13T00:54:24.071Z,99.90
2017-09-13T00:56:50.400Z,99.90
2017-09-13T00:59:16.824Z,99.90
2017-09-13T01:01:43.126Z,99.90
2017-09-13T01:04:10.232Z,99.90
2017-09-13T01:06:36.496Z,99.90
2017-09-13T01:09:02.949Z,99.90
2017-09-13T01:11:32.509Z,99.90
2017-09-13T01:13:58.773Z,99.90
2017-09-13T01:16:25.762Z,99.90
2017-09-13T01:18:52.108Z,99.90
2017-09-13T01:21:18.563Z,99.90
2017-09-13T01:23:44.879Z,99.90
2017-09-13T01:26:11.139Z,99.90
2017-09-13T01:28:38.268Z,99.90
2017-09-13T01:31:04.588Z,99.90
2017-09-13T01:33:30.929Z,99.90
2017-09-13T01:35:57.189Z,99.90
2017-09-13T01:38:24.250Z,99.90
2017-09-13T01:40:50.510Z,99.90
2017-09-13T01:43:16.839Z,99.90
2017-09-13T01:45:43.227Z,99.90
2017-09-13T01:48:10.362Z,99.90
2017-09-13T01:50:37.337Z,99.90
2017-09-13T01:53:03.659Z,99.90
2017-09-13T01:55:29.925Z,99.90
2017-09-13T01:57:56.457Z,99.90
2017-09-13T02:00:23.131Z,99.90
2017-09-13T02:02:49.403Z,99.90
2017-09-13T02:05:15.782Z,99.90
2017-09-13T02:07:44.429Z,99.90
2017-09-13T02:10:10.865Z,99.90
2017-09-13T02:12:37.175Z,99.90
2017-09-13T02:15:03.548Z,99.90
2017-09-13T02:17:29.817Z,99.90
2017-09-13T02:19:56.905Z,99.90
2017-09-13T02:22:23.190Z,99.90
2017-09-13T02:24:50.203Z,99.90
2017-09-13T02:27:18.348Z,99.90
2017-09-13T02:29:45.386Z,99.90
2017-09-13T02:32:15.130Z,99.90
2017-09-13T02:34:42.092Z,99.90
2017-09-13T02:37:15.756Z,99.90
2017-09-13T02:39:42.980Z,99.90
2017-09-13T02:42:09.986Z,99.90
2017-09-13T02:44:36.554Z,99.90
2017-09-13T02:47:03.538Z,99.90
2017-09-13T02:49:29.926Z,99.90
2017-09-13T02:51:56.923Z,99.90
2017-09-13T02:54:23.364Z,99.90
2017-09-13T02:56:49.639Z,99.90
2017-09-13T02:59:18.026Z,99.90
2017-09-13T03:01:47.063Z,99.90
2017-09-13T03:04:13.305Z,99.90
2017-09-13T03:06:39.613Z,99.90
2017-09-13T03:09:05.869Z,99.90
2017-09-13T03:11:34.384Z,99.90
2017-09-13T03:14:02.631Z,99.90
2017-09-13T03:16:29.115Z,99.90
2017-09-13T03:18:55.453Z,99.90
2017-09-13T03:21:22.995Z,99.90
2017-09-13T03:23:49.330Z,99.90
2017-09-13T03:26:15.685Z,99.90
2017-09-13T03:28:42.106Z,99.90
2017-09-13T03:31:08.380Z,99.90
2017-09-13T03:33:34.741Z,99.90
2017-09-13T03:36:01.765Z,99.90
2017-09-13T03:38:32.010Z,99.90
2017-09-13T03:40:58.515Z,99.90
2017-09-13T03:43:24.842Z,99.90
2017-09-13T03:45:51.081Z,99.90
2017-09-13T03:48:17.672Z,99.90
2017-09-13T03:50:43.988Z,99.90
2017-09-13T03:53:11.385Z,99.90
2017-09-13T03:55:37.643Z,99.90
2017-09-13T03:58:05.714Z,99.90
2017-09-13T04:00:33.455Z,99.90
2017-09-13T04:02:59.857Z,99.90
2017-09-13T04:05:28.057Z,99.90
2017-09-13T04:07:55.929Z,99.90
2017-09-13T04:10:22.223Z,99.90
2017-09-13T04:12:48.536Z,99.90
2017-09-13T04:15:14.990Z,99.90
2017-09-13T04:17:41.965Z,99.90
2017-09-13T04:20:08.479Z,99.90
2017-09-13T04:22:35.675Z,99.90
2017-09-13T04:25:03.735Z,99.90
2017-09-13T04:27:30.892Z,99.90
2017-09-13T04:29:57.897Z,99.90
2017-09-13T04:32:26.031Z,99.90
2017-09-13T04:34:54.434Z,99.90
2017-09-13T04:37:22.958Z,99.90
2017-09-13T04:39:49.306Z,99.90
2017-09-13T04:42:16.408Z,99.90
2017-09-13T04:44:42.854Z,99.90
2017-09-13T04:47:09.123Z,99.90
2017-09-13T04:49:35.474Z,99.90
2017-09-13T04:52:01.832Z,99.90
2017-09-13T04:54:28.162Z,99.90
2017-09-13T04:56:55.247Z,99.90
2017-09-13T04:59:22.575Z,99.90
2017-09-13T05:01:50.109Z,99.90
2017-09-13T05:04:16.436Z,99.90
2017-09-13T05:06:43.747Z,99.90
2017-09-13T05:11:47.948Z,99.90
2017-09-13T05:14:14.264Z,99.90
2017-09-13T05:16:40.624Z,99.90
2017-09-13T05:19:07.265Z,99.90
2017-09-13T05:21:33.546Z,99.90
2017-09-13T05:23:59.816Z,99.90
2017-09-13T05:26:26.169Z,99.90
2017-09-13T05:28:53.203Z,99.90
2017-09-13T05:31:19.477Z,99.90
2017-09-13T05:33:45.959Z,99.90
2017-09-13T05:36:12.971Z,99.90
2017-09-13T05:38:39.255Z,99.90
2017-09-13T05:41:05.606Z,99.90
2017-09-13T05:43:31.874Z,99.90
2017-09-13T05:45:58.125Z,99.90
2017-09-13T05:48:24.415Z,99.90
2017-09-13T05:50:50.688Z,99.90
2017-09-13T05:53:16.945Z,99.90
2017-09-13T05:55:43.267Z,99.90
2017-09-13T05:58:10.275Z,99.90
2017-09-13T06:00:36.805Z,99.90
2017-09-13T06:03:03.408Z,99.90
2017-09-13T06:05:29.967Z,99.90
2017-09-13T06:07:56.978Z,99.90
2017-09-13T06:10:23.353Z,99.90
2017-09-13T06:12:49.587Z,99.90
2017-09-13T06:15:15.875Z,99.90
2017-09-13T06:17:42.149Z,99.90
2017-09-13T06:20:08.385Z,99.90
2017-09-13T06:22:34.629Z,99.90
2017-09-13T06:25:01.719Z,99.90
2017-09-13T06:27:28.009Z,99.90
2017-09-13T06:29:54.987Z,99.90
2017-09-13T06:32:21.836Z,99.90
2017-09-13T06:34:48.393Z,99.90
2017-09-13T06:37:14.765Z,99.90
2017-09-13T06:39:41.817Z,99.90
2017-09-13T06:42:08.134Z,99.90
2017-09-13T06:44:35.104Z,99.90
2017-09-13T06:47:01.343Z,99.90
2017-09-13T06:49:27.831Z,99.90
2017-09-13T06:51:54.072Z,99.90
2017-09-13T06:54:21.058Z,99.90
2017-09-13T06:56:47.401Z,99.90
2017-09-13T06:59:13.754Z,99.90
2017-09-13T07:01:40.015Z,99.90
2017-09-13T07:04:07.012Z,99.90
2017-09-13T07:06:33.245Z,99.90
2017-09-13T07:08:59.479Z,99.90
2017-09-13T07:11:26.039Z,99.90
2017-09-13T07:13:52.374Z,99.90
2017-09-13T07:16:19.529Z,99.90
2017-09-13T07:18:46.598Z,99.90
2017-09-13T07:21:12.873Z,99.90
2017-09-13T07:23:39.123Z,99.90
2017-09-13T07:26:05.865Z,99.90
2017-09-13T07:28:32.114Z,99.90
2017-09-13T07:30:59.426Z,99.90
2017-09-13T07:33:25.668Z,99.90
2017-09-13T07:35:51.902Z,99.90
2017-09-13T07:38:18.884Z,99.90
2017-09-13T07:40:45.151Z,99.90
2017-09-13T07:43:11.377Z,99.90
2017-09-13T07:45:37.637Z,99.90
2017-09-13T07:48:04.698Z,99.90
2017-09-13T07:50:30.965Z,99.90
2017-09-13T07:52:57.370Z,99.90
2017-09-13T07:55:23.769Z,99.90
2017-09-13T07:57:50.783Z,99.90
2017-09-13T08:00:17.126Z,99.90
2017-09-13T08:02:44.230Z,99.90
2017-09-13T08:05:10.478Z,99.90
2017-09-13T08:07:36.748Z,99.90
2017-09-13T08:10:02.987Z,99.90
2017-09-13T08:12:30.214Z,99.90
2017-09-13T08:14:56.454Z,99.90
2017-09-13T08:17:22.693Z,99.90
2017-09-13T08:19:48.988Z,99.90
2017-09-13T08:22:15.278Z,99.90
2017-09-13T08:24:41.543Z,99.90
2017-09-13T08:27:07.781Z,99.90
2017-09-13T08:29:34.234Z,99.90
2017-09-13T08:32:00.469Z,99.90
2017-09-13T08:34:26.738Z,99.90
2017-09-13T08:36:53.740Z,99.90
2017-09-13T08:39:20.110Z,99.90
2017-09-13T08:41:47.301Z,99.90
2017-09-13T08:44:14.521Z,99.90
2017-09-13T08:46:40.750Z,99.90
2017-09-13T08:49:06.977Z,99.90
2017-09-13T08:51:33.214Z,99.90
2017-09-13T08:53:59.659Z,99.90
2017-09-13T08:56:25.887Z,99.90
2017-09-13T08:58:52.126Z,99.90
2017-09-13T09:01:18.386Z,99.90
2017-09-13T09:03:45.379Z,99.90
2017-09-13T09:06:11.969Z,99.90
2017-09-13T09:08:38.261Z,99.90
2017-09-13T09:11:04.937Z,99.90
2017-09-13T09:13:31.921Z,99.90
2017-09-13T09:15:58.183Z,99.90
2017-09-13T09:18:24.402Z,99.90
2017-09-13T09:20:50.629Z,99.90
2017-09-13T09:23:16.870Z,99.90
2017-09-13T09:25:43.106Z,99.90
2017-09-13T09:28:09.317Z,99.90
2017-09-13T09:30:35.571Z,99.90
2017-09-13T09:33:02.318Z,99.90
2017-09-13T09:35:28.609Z,99.90
2017-09-13T09:37:55.050Z,99.90
2017-09-13T09:40:21.286Z,99.90
2017-09-13T09:42:47.505Z,99.90
2017-09-13T09:45:14.619Z,99.90
2017-09-13T09:47:40.838Z,99.90
2017-09-13T09:50:07.237Z,99.90
2017-09-13T09:52:33.470Z,99.90
2017-09-13T09:55:00.473Z,99.90
2017-09-13T09:57:26.794Z,99.90
2017-09-13T09:59:53.183Z,99.90
2017-09-13T10:02:20.397Z,99.90
2017-09-13T10:04:46.641Z,99.90
2017-09-13T10:07:12.878Z,99.90
2017-09-13T10:09:39.616Z,99.90
2017-09-13T10:12:05.896Z,99.90
2017-09-13T10:14:32.306Z,99.90
2017-09-13T10:16:58.786Z,99.90
2017-09-13T10:19:25.010Z,99.90
2017-09-13T10:21:51.241Z,99.90
2017-09-13T10:24:17.498Z,99.90
2017-09-13T10:26:43.729Z,99.90
2017-09-13T10:29:10.710Z,99.90
2017-09-13T10:31:36.938Z,99.90
2017-09-13T10:34:03.183Z,99.90
2017-09-13T10:36:29.438Z,99.90
2017-09-13T10:38:55.662Z,99.90
2017-09-13T10:41:22.122Z,99.90
2017-09-13T10:43:48.362Z,99.90
2017-09-13T10:46:15.334Z,99.90
2017-09-13T10:48:41.558Z,99.90
2017-09-13T10:51:07.815Z,99.90
2017-09-13T10:53:34.091Z,99.90
2017-09-13T10:56:01.041Z,99.90
2017-09-13T10:58:28.117Z,99.90
2017-09-13T11:00:54.568Z,99.90
2017-09-13T11:03:21.018Z,99.90
2017-09-13T11:05:47.275Z,99.90
2017-09-13T11:08:14.246Z,99.90
2017-09-13T11:10:40.471Z,99.90
2017-09-13T11:13:06.721Z,99.90
2017-09-13T11:15:32.954Z,99.90
2017-09-13T11:17:59.253Z,99.90
2017-09-13T11:20:25.581Z,99.90
2017-09-13T11:22:52.551Z,99.90
2017-09-13T11:25:19.518Z,99.90
2017-09-13T11:27:46.590Z,99.90
2017-09-13T11:30:12.818Z,99.90
2017-09-13T11:32:39.153Z,99.90
2017-09-13T11:35:05.448Z,99.90
2017-09-13T11:37:31.682Z,99.90
2017-09-13T11:39:57.919Z,99.90
2017-09-13T11:42:24.182Z,99.90
2017-09-13T11:44:51.142Z,99.90
2017-09-13T11:47:17.374Z,99.90
2017-09-13T11:49:43.950Z,99.90
2017-09-13T11:52:10.181Z,99.90
2017-09-13T11:54:36.387Z,99.90
2017-09-13T11:57:02.655Z,99.90
2017-09-13T11:59:28.872Z,99.90
2017-09-13T12:01:55.092Z,99.90
2017-09-13T12:04:21.305Z,98.80
2017-09-13T12:06:47.534Z,98.80
2017-09-13T12:09:13.813Z,99.30
2017-09-13T12:11:40.793Z,99.10
2017-09-13T12:14:07.032Z,99.10
2017-09-13T12:16:33.550Z,98.00
2017-09-13T12:18:59.777Z,99.50
2017-09-13T12:21:26.031Z,97.90
2017-09-13T12:23:52.397Z,97.40
2017-09-13T12:26:18.624Z,96.60
2017-09-13T12:28:44.866Z,96.90
2017-09-13T12:31:11.965Z,99.90
2017-09-13T12:33:38.182Z,99.90
2017-09-13T12:36:04.411Z,99.90
2017-09-13T12:38:30.661Z,99.90
2017-09-13T12:40:56.993Z,99.90
2017-09-13T12:43:23.502Z,99.90
2017-09-13T12:45:49.756Z,99.90
2017-09-13T12:48:16.044Z,99.90
2017-09-13T12:50:42.265Z,99.90
2017-09-13T12:53:08.609Z,99.90
2017-09-13T12:55:34.886Z,99.90
2017-09-13T12:58:01.110Z,99.90
2017-09-13T13:00:27.594Z,99.90
2017-09-13T13:02:54.054Z,99.30
2017-09-13T13:05:20.482Z,98.60
2017-09-13T13:07:46.918Z,97.90
2017-09-13T13:10:13.146Z,98.10
2017-09-13T13:12:39.379Z,98.00
2017-09-13T13:15:05.930Z,97.80
2017-09-13T13:17:32.354Z,97.10
2017-09-13T13:19:58.579Z,96.50
2017-09-13T13:22:25.429Z,96.50
2017-09-13T13:24:52.395Z,97.80
2017-09-13T13:27:18.625Z,97.80
2017-09-13T13:29:44.942Z,97.80
2017-09-13T13:32:11.153Z,96.70
2017-09-13T13:34:37.645Z,97.30
2017-09-13T13:37:03.925Z,96.80
2017-09-13T13:39:30.246Z,96.80
2017-09-13T13:41:56.453Z,96.40
2017-09-13T13:44:22.700Z,96.60
2017-09-13T13:46:48.935Z,96.90
2017-09-13T13:49:15.163Z,97.00
2017-09-13T13:51:41.698Z,97.00
2017-09-13T13:54:07.932Z,97.80
2017-09-13T13:56:34.307Z,98.60
2017-09-13T13:59:01.475Z,99.90
2017-09-13T14:01:27.707Z,99.90
2017-09-13T14:03:53.961Z,99.90
2017-09-13T14:06:20.977Z,99.90
2017-09-13T14:08:47.214Z,99.90
2017-09-13T14:11:13.456Z,99.90
2017-09-13T14:13:39.696Z,99.90
2017-09-13T14:16:05.948Z,99.90
2017-09-13T14:18:32.637Z,99.90
2017-09-13T14:20:59.150Z,99.90
2017-09-13T14:23:25.380Z,99.90
2017-09-13T14:25:51.980Z,99.90
2017-09-13T14:28:18.218Z,99.50
2017-09-13T14:30:45.182Z,99.30
2017-09-13T14:33:12.489Z,99.30
2017-09-13T14:35:38.719Z,99.10
2017-09-13T14:38:04.941Z,99.60
2017-09-13T14:40:31.312Z,99.90
2017-09-13T14:42:58.269Z,99.00
2017-09-13T14:45:25.254Z,98.50
2017-09-13T14:47:51.700Z,98.40
2017-09-13T14:50:17.975Z,98.10
2017-09-13T14:52:44.957Z,97.40
2017-09-13T14:55:11.179Z,97.40
2017-09-13T14:57:38.309Z,97.40
2017-09-13T15:00:05.436Z,97.70
2017-09-13T15:02:32.429Z,98.00
2017-09-13T15:04:58.926Z,98.00
2017-09-13T15:07:25.902Z,99.90
2017-09-13T15:09:52.126Z,99.90
2017-09-13T15:12:18.685Z,99.90
2017-09-13T15:14:44.910Z,99.90
2017-09-13T15:17:11.537Z,99.90
2017-09-13T15:19:37.877Z,99.60
2017-09-13T15:22:04.097Z,99.20
2017-09-13T15:24:30.341Z,98.80
2017-09-13T15:26:57.701Z,98.30
2017-09-13T15:29:24.385Z,98.40
2017-09-13T15:31:50.614Z,98.40
2017-09-13T15:34:16.866Z,97.80
2017-09-13T15:36:43.080Z,97.40
2017-09-13T15:39:09.306Z,97.50
2017-09-13T15:41:35.692Z,97.50
2017-09-13T15:44:01.965Z,97.20
2017-09-13T15:46:28.206Z,97.20
2017-09-13T15:48:54.487Z,96.70
2017-09-13T15:51:20.720Z,96.80
2017-09-13T15:53:47.686Z,97.30
2017-09-13T15:56:14.667Z,97.10
2017-09-13T15:58:40.913Z,97.00
2017-09-13T16:01:07.137Z,97.10
2017-09-13T16:03:34.101Z,97.10
2017-09-13T16:06:00.314Z,97.10
2017-09-13T16:08:26.922Z,97.50
2017-09-13T16:10:53.157Z,97.10
2017-09-13T16:13:19.387Z,97.40
2017-09-13T16:15:45.942Z,96.90
2017-09-13T16:18:12.186Z,97.10
2017-09-13T16:20:38.408Z,97.00
2017-09-13T16:23:04.634Z,98.00
2017-09-13T16:25:30.866Z,97.60
2017-09-13T16:27:57.398Z,97.50
2017-09-13T16:30:23.659Z,98.00
2017-09-13T16:32:50.638Z,98.30
2017-09-13T16:35:16.903Z,98.20
2017-09-13T16:37:43.385Z,98.50
2017-09-13T16:40:09.614Z,98.60
2017-09-13T16:42:35.877Z,98.40
2017-09-13T16:45:02.179Z,98.60
2017-09-13T16:47:29.157Z,98.40
2017-09-13T16:49:55.418Z,98.50
2017-09-13T16:52:22.388Z,98.50
2017-09-13T16:54:48.678Z,98.40
2017-09-13T16:57:15.202Z,98.40
2017-09-13T16:59:41.715Z,98.20
2017-09-13T17:02:08.017Z,98.30
2017-09-13T17:04:34.793Z,97.90
2017-09-13T17:07:01.030Z,98.00
2017-09-13T17:09:27.341Z,97.60
2017-09-13T17:11:53.861Z,97.50
2017-09-13T17:14:20.109Z,97.70
2017-09-13T17:16:46.629Z,98.00
2017-09-13T17:19:13.221Z,98.40
2017-09-13T17:21:40.195Z,99.50
2017-09-13T17:24:06.431Z,99.20
2017-09-13T17:26:32.695Z,99.70
2017-09-13T17:28:58.993Z,99.60
2017-09-13T17:31:26.507Z,99.20
2017-09-13T17:33:53.518Z,99.10
2017-09-13T17:36:20.335Z,99.10
2017-09-13T17:38:46.602Z,98.60
2017-09-13T17:41:13.355Z,98.40
2017-09-13T17:43:39.638Z,98.30
2017-09-13T17:46:05.909Z,98.10
2017-09-13T17:48:32.450Z,97.90
2017-09-13T17:50:59.273Z,97.50
2017-09-13T17:53:25.506Z,97.40
2017-09-13T17:55:51.749Z,97.00
2017-09-13T17:58:18.341Z,96.90
2017-09-13T18:00:44.586Z,96.70
2017-09-13T18:03:10.859Z,96.90
2017-09-13T18:05:37.841Z,97.40
2017-09-13T18:08:04.065Z,97.40
2017-09-13T18:10:30.646Z,97.50
2017-09-13T18:12:57.264Z,97.80
2017-09-13T18:15:23.503Z,98.10
2017-09-13T18:17:49.943Z,98.10
2017-09-13T18:20:16.244Z,98.40
2017-09-13T18:22:42.694Z,98.30
2017-09-13T18:25:09.230Z,98.30
2017-09-13T18:27:35.468Z,98.10
2017-09-13T18:30:01.951Z,98.00
2017-09-13T18:32:28.174Z,98.00
2017-09-13T18:34:54.417Z,97.80
2017-09-13T18:37:20.707Z,97.70
2017-09-13T18:39:47.759Z,97.90
2017-09-13T18:42:15.252Z,98.00
2017-09-13T18:44:42.417Z,98.20
2017-09-13T18:47:08.649Z,98.40
2017-09-13T18:49:34.893Z,98.20
2017-09-13T18:52:01.329Z,98.20
2017-09-13T18:54:27.571Z,98.40
2017-09-13T18:56:54.354Z,98.40
2017-09-13T18:59:21.059Z,98.20
2017-09-13T19:01:48.026Z,98.10
2017-09-13T19:04:14.613Z,98.10
2017-09-13T19:06:40.880Z,98.20
2017-09-13T19:09:07.880Z,98.00
2017-09-13T19:11:34.122Z,98.00
2017-09-13T19:14:00.377Z,97.80
2017-09-13T19:16:27.360Z,97.60
2017-09-13T19:18:53.602Z,97.50
2017-09-13T19:21:19.861Z,97.70
2017-09-13T19:23:46.378Z,98.00
2017-09-13T19:26:12.884Z,97.80
2017-09-13T19:28:39.110Z,97.90
2017-09-13T19:31:05.398Z,97.70
2017-09-13T19:33:31.667Z,97.80
2017-09-13T19:35:57.896Z,97.80
2017-09-13T19:38:24.145Z,97.70
2017-09-13T19:40:50.435Z,97.90
2017-09-13T19:43:17.826Z,98.00
2017-09-13T19:45:44.106Z,98.00
2017-09-13T19:48:11.200Z,98.30
2017-09-13T19:50:37.466Z,98.20
2017-09-13T19:53:03.698Z,98.20
2017-09-13T19:55:30.268Z,98.30
2017-09-13T19:57:56.489Z,98.30
2017-09-13T20:00:22.722Z,98.20
2017-09-13T20:02:48.994Z,98.20
2017-09-13T20:05:15.502Z,97.90
2017-09-13T20:07:41.730Z,98.00
2017-09-13T20:10:08.475Z,98.10
2017-09-13T20:12:34.714Z,98.20
2017-09-13T20:15:01.174Z,98.40
2017-09-13T20:17:27.449Z,98.10
2017-09-13T20:19:53.717Z,98.10
2017-09-13T20:22:20.162Z,97.90
2017-09-13T20:24:46.432Z,97.80
2017-09-13T20:27:12.665Z,98.00
2017-09-13T20:29:38.898Z,97.80
2017-09-13T20:32:05.186Z,98.00
2017-09-13T20:34:32.003Z,97.90
2017-09-13T20:36:58.273Z,98.00
2017-09-13T20:39:25.525Z,98.00
2017-09-13T20:41:52.489Z,97.90
2017-09-13T20:44:19.129Z,97.90
2017-09-13T20:46:45.389Z,98.00
2017-09-13T20:49:11.618Z,97.90
2017-09-13T20:51:37.877Z,97.90
2017-09-13T20:54:04.605Z,97.80
2017-09-13T20:56:31.093Z,97.60
2017-09-13T20:58:57.422Z,97.50
2017-09-13T21:01:23.713Z,97.40
2017-09-13T21:03:50.730Z,97.70
2017-09-13T21:06:17.198Z,97.70
2017-09-13T21:08:45.073Z,97.80
2017-09-13T21:11:12.413Z,97.60
2017-09-13T21:13:38.670Z,97.60
2017-09-13T21:16:05.428Z,97.60
2017-09-13T21:18:31.680Z,97.60
2017-09-13T21:20:58.833Z,97.50
2017-09-13T21:23:25.232Z,97.90
2017-09-13T21:25:52.062Z,97.90
2017-09-13T21:28:18.416Z,98.20
2017-09-13T21:30:44.857Z,98.20
2017-09-13T21:33:11.946Z,97.90
2017-09-13T21:35:38.245Z,98.00
2017-09-13T21:38:04.683Z,98.20
2017-09-13T21:40:30.911Z,98.20
2017-09-13T21:42:57.388Z,98.10
2017-09-13T21:45:24.378Z,98.30
2017-09-13T21:47:50.618Z,98.30
2017-09-13T21:50:17.206Z,98.40
2017-09-13T21:52:44.185Z,98.60
2017-09-13T21:55:10.769Z,98.60
2017-09-13T21:57:38.101Z,98.80
2017-09-13T22:00:04.682Z,98.80
2017-09-13T22:02:30.941Z,98.80
2017-09-13T22:04:57.221Z,99.00
2017-09-13T22:07:24.189Z,99.10
2017-09-13T22:09:50.481Z,99.10
2017-09-13T22:12:16.900Z,99.10
2017-09-13T22:14:43.125Z,99.00
2017-09-13T22:17:09.383Z,99.00
2017-09-13T22:19:36.373Z,99.20
2017-09-13T22:22:02.592Z,99.20
2017-09-13T22:24:28.827Z,99.20
2017-09-13T22:26:55.102Z,99.10
2017-09-13T22:29:21.322Z,99.00
2017-09-13T22:31:47.550Z,99.20
2017-09-13T22:34:13.800Z,99.30
2017-09-13T22:36:40.814Z,99.60
2017-09-13T22:39:07.050Z,99.50
2017-09-13T22:41:33.301Z,99.60
2017-09-13T22:44:00.286Z,99.70
2017-09-13T22:46:26.517Z,99.40
2017-09-13T22:48:52.770Z,99.70
2017-09-13T22:51:19.068Z,99.90
2017-09-13T22:53:45.301Z,99.70
2017-09-13T22:56:11.554Z,99.90
2017-09-13T22:58:37.810Z,99.90
2017-09-13T23:01:04.057Z,99.70
2017-09-13T23:03:31.030Z,99.80
2017-09-13T23:05:57.291Z,99.80
2017-09-13T23:08:23.534Z,99.70
2017-09-13T23:10:49.772Z,99.90
2017-09-13T23:13:16.795Z,99.70
2017-09-13T23:15:43.042Z,99.70
2017-09-13T23:18:09.273Z,99.60
2017-09-13T23:20:36.273Z,99.90
2017-09-13T23:23:02.508Z,99.90
2017-09-13T23:25:28.731Z,99.90
2017-09-13T23:27:54.957Z,99.90
2017-09-13T23:30:21.237Z,99.90
2017-09-13T23:32:48.213Z,99.90
2017-09-13T23:35:14.447Z,99.90
2017-09-13T23:37:40.743Z,99.90
2017-09-13T23:40:07.710Z,99.90
2017-09-13T23:42:33.959Z,99.90
2017-09-13T23:45:00.223Z,99.90
2017-09-13T23:47:26.471Z,99.90
2017-09-13T23:49:53.434Z,99.90
2017-09-13T23:52:19.698Z,99.90
2017-09-13T23:54:45.929Z,99.90
2017-09-13T23:57:12.170Z,99.90
2017-09-13T23:59:38.703Z,99.90
